Time;durP1;ratioP1;P1;durP2;ratioP2;P2;SDS_P1;SDS_P2;PMS_P1;PMS_P2;Temp;Humidity;BMP_temperature;BMP_pressure;BME280_temperature;BME280_humidity;BME280_pressure;Samples;Min_cycle;Max_cycle;Signal;HPM_P1;HPM_P2
2021/08/28 00:02:02;;;;;;;8.63;3.10;;;;;;;9.17;83.47;90826.75;5047867;28;20028;-86
2021/08/28 00:04:34;;;;;;;4.50;2.80;;;;;;;9.03;83.77;90825.19;5062517;28;20036;-86
2021/08/28 00:07:10;;;;;;;4.00;2.78;;;;;;;9.01;83.57;90811.00;5044104;28;20028;-86
2021/08/28 00:09:48;;;;;;;7.28;2.90;;;;;;;9.08;83.47;90826.81;5059960;28;20039;-85
2021/08/28 00:12:26;;;;;;;7.82;3.75;;;;;;;9.02;83.91;90830.72;5065087;28;20055;-85
2021/08/28 00:15:03;;;;;;;3.97;2.40;;;;;;;8.96;84.82;90822.34;5059125;28;20058;-86
2021/08/28 00:17:39;;;;;;;5.50;2.85;;;;;;;9.00;84.13;90823.22;5042414;28;20104;-85
2021/08/28 00:20:15;;;;;;;5.13;3.55;;;;;;;9.10;83.41;90819.47;5028257;28;20587;-85
2021/08/28 00:22:57;;;;;;;5.50;3.53;;;;;;;9.16;83.33;90814.84;5023436;28;20103;-86
2021/08/28 00:25:37;;;;;;;8.20;4.22;;;;;;;9.17;84.22;90821.56;5057927;28;20052;-85
2021/08/28 00:28:20;;;;;;;5.60;4.45;;;;;;;9.03;84.98;90829.63;5025520;28;20024;-86
2021/08/28 00:30:58;;;;;;;7.93;6.47;;;;;;;9.04;85.20;90821.50;5057293;28;20032;-85
2021/08/28 00:33:36;;;;;;;8.68;6.72;;;;;;;9.09;84.94;90818.72;5041551;28;20020;-85
2021/08/28 00:36:11;;;;;;;10.02;6.07;;;;;;;9.08;84.92;90809.41;5056233;28;20028;-86
2021/08/28 00:38:47;;;;;;;9.82;5.90;;;;;;;9.13;85.45;90813.63;5023702;28;20107;-85
2021/08/28 00:41:25;;;;;;;11.68;6.00;;;;;;;9.04;85.24;90815.56;5040563;28;20032;-85
2021/08/28 00:43:57;;;;;;;10.63;6.30;;;;;;;9.09;84.81;90813.53;5057914;28;20031;-85
2021/08/28 00:46:36;;;;;;;8.00;5.60;;;;;;;9.33;83.70;90812.06;5020764;28;20100;-86
2021/08/28 00:49:13;;;;;;;10.60;6.03;;;;;;;9.19;84.73;90811.59;5021448;28;20013;-85
2021/08/28 00:51:54;;;;;;;10.95;7.03;;;;;;;9.14;84.66;90806.59;5037862;28;20405;-85
2021/08/28 00:54:31;;;;;;;8.70;5.72;;;;;;;9.11;84.82;90805.38;5020950;28;20033;-86
2021/08/28 00:57:05;;;;;;;10.43;5.82;;;;;;;9.23;83.74;90802.09;5020717;28;20029;-86
2021/08/28 00:59:43;;;;;;;8.82;5.47;;;;;;;9.17;84.85;90805.97;5036480;28;20053;-85
2021/08/28 01:02:19;;;;;;;8.70;5.47;;;;;;;9.24;83.91;90798.41;5020038;28;20029;-86
2021/08/28 01:05:12;;;;;;;9.00;5.18;;;;;;;9.27;83.67;90806.31;5020690;28;20449;-86
2021/08/28 01:08:14;;;;;;;10.40;5.35;;;;;;;9.13;84.46;90813.63;5023805;28;20428;-86
2021/08/28 01:10:57;;;;;;;9.30;5.47;;;;;;;9.30;83.77;90808.28;5036055;28;20107;-86
2021/08/28 01:13:31;;;;;;;7.20;5.10;;;;;;;9.22;83.87;90808.34;5008658;28;20025;-84
2021/08/28 01:16:08;;;;;;;7.30;4.85;;;;;;;9.10;84.73;90806.47;5020732;28;20024;-85
2021/08/28 01:18:45;;;;;;;9.77;5.50;;;;;;;9.10;85.05;90803.88;5021004;28;20485;-85
2021/08/28 01:21:26;;;;;;;14.50;5.35;;;;;;;9.11;84.93;90805.38;5020487;28;20393;-86
2021/08/28 01:23:54;;;;;;;11.13;5.15;;;;;;;9.08;84.94;90804.22;5021246;28;20021;-86
2021/08/28 01:26:33;;;;;;;9.77;5.07;;;;;;;9.12;85.45;90803.53;5020138;28;20084;-88
2021/08/28 01:29:29;;;;;;;7.20;3.88;;;;;;;9.14;85.43;90812.56;5044514;28;20044;-88
2021/08/28 01:32:08;;;;;;;9.73;4.65;;;;;;;9.33;83.66;90801.66;5069257;28;20063;-86
2021/08/28 01:34:44;;;;;;;12.00;4.80;;;;;;;9.21;83.95;90799.03;5028866;28;20033;-87
2021/08/28 01:37:20;;;;;;;6.35;3.75;;;;;;;9.18;84.92;90810.81;5038221;28;20088;-86
2021/08/28 01:39:56;;;;;;;8.82;5.20;;;;;;;9.23;84.31;90807.28;5036031;28;20013;-85
2021/08/28 01:42:38;;;;;;;6.85;4.97;;;;;;;9.38;83.75;90806.66;5002791;28;20119;-85
2021/08/28 01:45:11;;;;;;;10.40;5.88;;;;;;;9.17;84.38;90809.31;5003168;28;20029;-85
2021/08/28 01:47:50;;;;;;;5.63;4.55;;;;;;;9.14;84.81;90815.16;5032485;28;20044;-89
2021/08/28 01:50:27;;;;;;;8.60;5.68;;;;;;;9.15;84.53;90805.50;5025095;28;20390;-84
2021/08/28 01:53:08;;;;;;;11.98;5.10;;;;;;;9.15;84.99;90808.09;5035322;28;20021;-84
2021/08/28 01:55:40;;;;;;;9.43;6.00;;;;;;;9.22;84.37;90816.13;5035264;28;20392;-86
2021/08/28 01:58:13;;;;;;;7.22;5.53;;;;;;;9.05;85.44;90812.66;5018975;28;20029;-85
2021/08/28 02:00:49;;;;;;;13.63;6.60;;;;;;;9.10;85.28;90809.84;5018128;28;20025;-86
2021/08/28 02:03:30;;;;;;;10.02;6.55;;;;;;;9.22;84.70;90813.53;5018454;28;20045;-86
2021/08/28 02:06:09;;;;;;;12.40;6.80;;;;;;;9.09;84.89;90816.13;5033498;28;20029;-86
2021/08/28 02:08:52;;;;;;;10.65;5.80;;;;;;;9.08;84.87;90814.59;5018151;28;20029;-86
2021/08/28 02:11:45;;;;;;;10.43;5.93;;;;;;;9.05;85.41;90812.66;5019277;28;20025;-86
2021/08/28 02:14:25;;;;;;;11.85;7.78;;;;;;;9.19;84.86;90812.38;5020135;28;20029;-85
2021/08/28 02:17:04;;;;;;;12.68;7.82;;;;;;;9.17;84.55;90811.91;5018939;28;20028;-85
2021/08/28 02:19:40;;;;;;;10.63;6.93;;;;;;;9.14;85.08;90804.00;5019268;28;20106;-86
2021/08/28 02:22:23;;;;;;;9.57;6.45;;;;;;;9.10;85.13;90809.84;5019246;28;20083;-85
2021/08/28 02:25:02;;;;;;;9.48;6.70;;;;;;;9.16;84.45;90807.81;5020197;28;20547;-85
2021/08/28 02:27:41;;;;;;;14.43;7.03;;;;;;;9.09;84.52;90797.94;5034081;28;20048;-86
2021/08/28 02:30:18;;;;;;;9.82;6.15;;;;;;;9.23;85.08;90812.47;5019398;28;20079;-86
2021/08/28 02:32:57;;;;;;;10.63;7.40;;;;;;;9.10;85.12;90809.84;5003470;28;20020;-88
2021/08/28 02:35:36;;;;;;;12.75;8.05;;;;;;;9.04;85.18;90800.72;5047652;28;20021;-86
2021/08/28 02:38:15;;;;;;;15.10;9.02;;;;;;;8.96;85.08;90803.41;5030660;28;20028;-86
2021/08/28 02:40:46;;;;;;;12.20;7.90;;;;;;;9.01;85.26;90806.56;5047454;28;20396;-86
2021/08/28 02:43:22;;;;;;;10.57;8.13;;;;;;;9.10;84.20;90799.44;5039980;28;20408;-86
2021/08/28 02:46:01;;;;;;;19.80;8.23;;;;;;;9.12;84.44;90803.53;5025697;28;20029;-85
2021/08/28 02:48:35;;;;;;;12.55;8.80;;;;;;;9.10;85.17;90801.28;5048966;28;20094;-86
2021/08/28 02:51:13;;;;;;;12.75;8.77;;;;;;;9.02;84.82;90796.94;5027160;28;20021;-86
2021/08/28 02:53:59;;;;;;;14.75;8.57;;;;;;;9.03;85.49;90778.41;5010056;28;20029;-87
2021/08/28 02:56:38;;;;;;;11.63;7.40;;;;;;;9.07;85.05;90768.13;5024764;28;20021;-87
2021/08/28 02:59:16;;;;;;;10.70;7.47;;;;;;;9.09;85.36;90771.94;5039482;28;20473;-85
2021/08/28 03:01:57;;;;;;;17.25;8.88;;;;;;;9.01;85.33;90777.97;5008146;28;20405;-86
2021/08/28 03:04:36;;;;;;;11.63;8.13;;;;;;;8.99;85.54;90777.53;5040050;28;20043;-88
2021/08/28 03:07:12;;;;;;;16.05;7.80;;;;;;;8.97;85.41;90774.47;5008353;28;20029;-86
2021/08/28 03:09:49;;;;;;;8.90;5.88;;;;;;;9.19;84.95;90770.00;5007534;28;20378;-88
2021/08/28 03:12:23;;;;;;;7.15;5.55;;;;;;;8.93;85.72;90752.81;5009025;28;20025;-86
2021/08/28 03:15:01;;;;;;;10.18;5.53;;;;;;;8.96;86.11;90767.78;5025370;28;20025;-86
2021/08/28 03:17:37;;;;;;;9.85;6.72;;;;;;;9.12;84.96;90761.94;5025622;28;20032;-86
2021/08/28 03:20:15;;;;;;;8.57;6.32;;;;;;;9.30;83.37;90763.31;5041699;28;20650;-85
2021/08/28 03:22:51;;;;;;;7.63;5.55;;;;;;;9.15;83.90;90754.28;5030420;28;20017;-86
2021/08/28 03:25:28;;;;;;;9.38;5.93;;;;;;;8.98;84.52;90760.44;5010260;28;20202;-88
2021/08/28 03:28:02;;;;;;;9.40;6.10;;;;;;;8.74;85.00;90760.34;5044979;28;20542;-87
2021/08/28 03:30:39;;;;;;;8.95;5.80;;;;;;;8.68;85.61;90766.81;5028316;28;20032;-87
2021/08/28 03:33:13;;;;;;;9.48;5.93;;;;;;;8.60;85.36;90763.97;5062116;28;20109;-88
2021/08/28 03:35:48;;;;;;;7.72;6.13;;;;;;;8.68;84.72;90774.59;5048640;28;20028;-84
2021/08/28 03:38:19;;;;;;;10.57;6.00;;;;;;;8.80;84.42;90769.47;5048274;28;20096;-86
2021/08/28 03:40:59;;;;;;;8.90;5.95;;;;;;;8.63;85.03;90764.44;5045802;28;20449;-87
2021/08/28 03:43:38;;;;;;;11.15;5.88;;;;;;;8.49;85.57;90773.25;5023318;28;20028;-89
2021/08/28 03:46:14;;;;;;;8.20;5.88;;;;;;;8.47;85.82;90770.19;5026745;28;20485;-87
2021/08/28 03:48:51;;;;;;;11.88;7.20;;;;;;;8.57;85.22;90767.19;5029565;28;20044;-89
2021/08/28 03:51:33;;;;;;;13.05;7.07;;;;;;;8.42;86.07;90767.03;5043361;28;20081;-86
2021/08/28 03:54:08;;;;;;;12.93;6.85;;;;;;;8.46;86.06;90771.28;5026669;28;20037;-85
2021/08/28 03:56:49;;;;;;;11.82;7.93;;;;;;;8.40;86.03;90766.59;5020510;28;20393;-85
2021/08/28 03:59:27;;;;;;;12.98;7.97;;;;;;;8.38;86.22;90764.31;5036077;28;20525;-84
2021/08/28 04:02:03;;;;;;;14.50;8.80;;;;;;;8.40;86.39;90764.75;5019504;28;20025;-85
2021/08/28 04:04:37;;;;;;;15.38;8.50;;;;;;;8.33;86.95;90761.88;5020181;28;20034;-85
2021/08/28 04:07:15;;;;;;;13.68;8.50;;;;;;;8.44;86.53;90764.88;5020317;28;20020;-86
2021/08/28 04:09:56;;;;;;;17.40;8.90;;;;;;;8.55;86.42;90764.19;5078739;23;20048;-87
2021/08/28 04:12:36;;;;;;;12.77;8.13;;;;;;;8.50;86.30;90764.34;5039973;28;20028;-88
2021/08/28 04:15:10;;;;;;;8.95;7.22;;;;;;;8.41;86.46;90765.50;5039822;28;20410;-88
2021/08/28 04:17:55;;;;;;;18.40;8.10;;;;;;;8.38;86.88;90764.31;5039946;28;20063;-89
2021/08/28 04:20:35;;;;;;;10.60;7.07;;;;;;;8.42;86.61;90764.44;5049930;28;20032;-88
2021/08/28 04:23:12;;;;;;;10.63;6.65;;;;;;;8.43;86.77;90760.75;5019671;28;20029;-88
2021/08/28 04:25:51;;;;;;;11.27;7.40;;;;;;;8.45;86.89;90759.38;5019106;28;20032;-88
2021/08/28 04:28:30;;;;;;;10.88;7.93;;;;;;;8.57;85.89;90749.03;5019548;28;20024;-89
2021/08/28 04:31:04;;;;;;;11.15;7.35;;;;;;;8.52;86.51;90748.47;5002985;28;20029;-88
2021/08/28 04:33:43;;;;;;;14.70;8.85;;;;;;;8.50;87.07;90748.78;5019685;28;20075;-89
2021/08/28 04:36:19;;;;;;;10.60;6.63;;;;;;;8.44;86.83;90747.44;5019274;28;20025;-88
2021/08/28 04:38:52;;;;;;;8.35;6.60;;;;;;;8.44;86.65;90752.63;5018914;28;20095;-88
2021/08/28 04:41:32;;;;;;;12.27;7.45;;;;;;;8.39;86.51;90750.25;5019077;28;20021;-88
2021/08/28 04:44:08;;;;;;;9.05;6.75;;;;;;;8.40;86.56;90762.16;5050919;28;20497;-88
2021/08/28 04:46:47;;;;;;;10.50;6.10;;;;;;;8.44;86.38;90757.84;5019171;28;20512;-88
2021/08/28 04:49:22;;;;;;;9.07;6.07;;;;;;;8.41;86.23;90768.88;5018811;28;20059;-88
2021/08/28 04:51:58;;;;;;;11.35;7.03;;;;;;;8.49;85.77;90770.63;5035110;28;20028;-88
2021/08/28 04:54:38;;;;;;;13.75;8.77;;;;;;;8.48;86.25;90776.13;5019369;28;20033;-88
2021/08/28 04:57:10;;;;;;;15.50;7.65;;;;;;;8.58;86.10;90773.91;5018917;28;20024;-88
2021/08/28 04:59:40;;;;;;;12.20;6.75;;;;;;;8.48;86.29;90781.34;5018291;28;20025;-88
2021/08/28 05:02:21;;;;;;;14.30;6.60;;;;;;;8.43;86.51;90781.53;5017980;28;20029;-89
2021/08/28 05:04:55;;;;;;;11.63;6.68;;;;;;;8.46;86.46;90786.84;5018545;28;20021;-88
2021/08/28 05:07:35;;;;;;;9.77;6.75;;;;;;;8.52;86.43;90801.19;5002348;28;20034;-88
2021/08/28 05:10:15;;;;;;;10.85;6.70;;;;;;;8.46;86.74;90799.84;4998956;28;20037;-88
2021/08/28 05:12:55;;;;;;;10.45;6.53;;;;;;;8.48;86.63;90808.09;5015786;28;20026;-89
2021/08/28 05:15:32;;;;;;;11.23;5.65;;;;;;;8.48;86.99;90799.50;4982595;28;20029;-88
2021/08/28 05:18:08;;;;;;;10.52;6.35;;;;;;;8.43;87.23;90799.72;5014473;28;20037;-88
2021/08/28 05:20:42;;;;;;;10.38;6.30;;;;;;;8.48;86.89;90797.69;4982674;28;20025;-88
2021/08/28 05:23:17;;;;;;;13.50;6.10;;;;;;;8.57;87.06;90800.97;4999508;28;20029;-88
2021/08/28 05:25:52;;;;;;;9.23;5.57;;;;;;;8.58;87.36;90792.09;5034093;28;20029;-88
2021/08/28 05:28:30;;;;;;;9.30;6.15;;;;;;;8.64;86.91;90792.66;5033570;28;20025;-88
2021/08/28 05:31:02;;;;;;;10.85;5.85;;;;;;;8.60;86.95;90786.59;5017894;28;20032;-88
2021/08/28 05:33:38;;;;;;;9.48;6.05;;;;;;;8.59;87.26;90790.28;5018273;28;20028;-88
2021/08/28 05:36:14;;;;;;;8.73;6.40;;;;;;;8.61;86.59;90794.06;5005152;28;20037;-88
2021/08/28 05:38:48;;;;;;;8.82;6.18;;;;;;;8.79;85.76;90799.13;5018222;28;20025;-88
2021/08/28 05:41:25;;;;;;;9.70;5.75;;;;;;;8.75;86.23;90793.03;5001694;28;20388;-88
2021/08/28 05:44:06;;;;;;;11.00;5.93;;;;;;;8.76;86.81;90797.94;5023062;28;20026;-88
2021/08/28 05:46:41;;;;;;;12.65;6.45;;;;;;;8.70;86.65;90790.66;4998475;28;20053;-88
2021/08/28 05:49:13;;;;;;;9.90;5.88;;;;;;;8.64;86.56;90795.28;5034351;28;20104;-88
2021/08/28 05:51:49;;;;;;;13.32;6.60;;;;;;;8.91;85.53;90799.16;5016778;28;20025;-87
2021/08/28 05:54:24;;;;;;;8.63;5.13;;;;;;;8.84;85.86;90789.28;5033351;28;20036;-88
2021/08/28 05:57:00;;;;;;;8.52;5.35;;;;;;;9.07;85.43;90797.47;5017692;28;20078;-88
2021/08/28 05:59:34;;;;;;;10.80;5.50;;;;;;;9.04;85.23;90802.56;4997949;28;20022;-88
2021/08/28 06:02:07;;;;;;;10.10;5.25;;;;;;;9.03;85.22;90809.59;5014923;28;20497;-88
2021/08/28 06:04:44;;;;;;;9.63;5.03;;;;;;;9.05;85.14;90807.44;4981271;28;20126;-88
2021/08/28 06:07:24;;;;;;;10.05;5.70;;;;;;;8.96;85.05;90806.75;5028320;28;20091;-87
2021/08/28 06:10:01;;;;;;;7.47;5.00;;;;;;;8.92;85.49;90803.28;5020251;28;20120;-88
2021/08/28 06:12:38;;;;;;;14.85;5.57;;;;;;;9.00;85.21;90799.06;5038156;28;20025;-88
2021/08/28 06:15:15;;;;;;;6.50;4.43;;;;;;;9.03;86.09;90796.59;5022008;28;20025;-88
2021/08/28 06:17:55;;;;;;;10.68;5.10;;;;;;;9.09;84.85;90782.31;5037347;28;20104;-88
2021/08/28 06:20:27;;;;;;;9.13;4.97;;;;;;;9.10;85.68;90796.06;5037325;28;20025;-88
2021/08/28 06:23:04;;;;;;;7.38;3.92;;;;;;;9.25;84.58;90799.91;5021411;28;20028;-88
2021/08/28 06:25:44;;;;;;;7.45;4.50;;;;;;;9.44;83.33;90800.16;5038297;28;20020;-88
2021/08/28 06:28:26;;;;;;;8.45;4.22;;;;;;;9.33;83.83;90801.66;5021545;28;20033;-86
2021/08/28 06:31:07;;;;;;;7.13;3.90;;;;;;;9.39;84.54;90805.56;5003379;28;20061;-87
2021/08/28 06:33:48;;;;;;;8.05;4.07;;;;;;;9.43;83.73;90801.22;5022427;28;20033;-88
2021/08/28 06:36:23;;;;;;;7.85;3.55;;;;;;;9.48;83.53;90803.63;5022021;28;20824;-88
2021/08/28 06:39:01;;;;;;;8.10;3.67;;;;;;;9.51;84.33;90808.19;5037241;28;20021;-88
2021/08/28 06:41:38;;;;;;;5.80;3.00;;;;;;;9.67;83.62;90808.31;5004620;28;20111;-88
2021/08/28 06:44:16;;;;;;;6.07;2.80;;;;;;;9.77;82.59;90809.72;5009190;28;20029;-90
2021/08/28 06:46:57;;;;;;;10.68;3.65;;;;;;;9.74;83.46;90818.19;5003846;28;20029;-90
2021/08/28 06:49:34;;;;;;;5.93;3.75;;;;;;;9.72;83.29;90818.53;5036143;28;20070;-89
2021/08/28 06:52:11;;;;;;;5.28;3.58;;;;;;;9.69;83.09;90826.22;5021445;28;20033;-88
2021/08/28 06:54:48;;;;;;;8.23;3.63;;;;;;;9.76;83.95;90827.19;5020599;28;20485;-89
2021/08/28 06:57:28;;;;;;;8.55;3.30;;;;;;;9.85;82.20;90831.53;5037445;28;20459;-88
2021/08/28 07:00:07;;;;;;;6.78;3.60;;;;;;;9.64;82.38;90831.63;5012854;28;20029;-90
2021/08/28 07:02:40;;;;;;;8.20;4.13;;;;;;;9.67;81.22;90825.78;5001721;28;20031;-89
2021/08/28 07:05:15;;;;;;;8.70;4.00;;;;;;;9.84;80.65;90828.16;4985606;28;20435;-90
2021/08/28 07:07:56;;;;;;;7.95;4.20;;;;;;;9.72;81.62;90828.19;4984911;28;20025;-88
2021/08/28 07:10:28;;;;;;;10.50;4.60;;;;;;;9.72;81.16;90822.97;4985148;28;20038;-89
2021/08/28 07:13:10;;;;;;;7.43;4.40;;;;;;;9.80;81.14;90824.72;4984641;28;20083;-89
2021/08/28 07:15:41;;;;;;;5.93;3.90;;;;;;;9.98;80.33;90825.25;5016816;28;20031;-87
2021/08/28 07:18:19;;;;;;;6.65;3.78;;;;;;;10.12;79.86;90809.31;5016931;28;20415;-89
2021/08/28 07:20:55;;;;;;;7.38;3.30;;;;;;;10.26;79.87;90807.16;5001421;28;20021;-90
2021/08/28 07:23:36;;;;;;;8.82;3.20;;;;;;;10.50;79.34;90804.50;5017854;28;20029;-90
2021/08/28 07:26:15;;;;;;;7.05;3.70;;;;;;;10.69;78.05;90808.34;5001663;28;20025;-89
2021/08/28 07:28:52;;;;;;;6.57;3.28;;;;;;;10.84;78.08;90807.66;5009047;28;20033;-89
2021/08/28 07:31:31;;;;;;;8.30;3.83;;;;;;;10.89;76.51;90804.81;5026304;28;20033;-92
2021/08/28 07:34:02;;;;;;;8.88;3.40;;;;;;;10.87;76.23;90806.97;5008161;28;20449;-89
2021/08/28 07:36:38;;;;;;;8.57;3.55;;;;;;;10.74;77.45;90813.31;5016248;28;20037;-89
2021/08/28 07:39:13;;;;;;;8.82;4.20;;;;;;;10.67;77.57;90800.88;4999870;28;20448;-88
2021/08/28 07:41:50;;;;;;;11.32;4.30;;;;;;;10.56;78.46;90801.66;5032252;28;20033;-89
2021/08/28 07:44:21;;;;;;;9.13;4.03;;;;;;;10.61;77.87;90811.84;5020263;28;20021;-88
2021/08/28 07:46:57;;;;;;;8.27;3.50;;;;;;;10.65;76.98;90810.84;5036522;28;20029;-89
2021/08/28 07:49:36;;;;;;;7.22;3.63;;;;;;;10.38;76.85;90812.31;5011121;28;20435;-87
2021/08/28 07:52:16;;;;;;;5.93;3.90;;;;;;;10.52;77.26;90812.72;5022864;28;20028;-89
2021/08/28 07:54:52;;;;;;;8.13;3.80;;;;;;;10.68;78.17;90809.44;5022854;28;20057;-88
2021/08/28 07:57:27;;;;;;;6.25;3.25;;;;;;;10.67;76.01;90800.09;5015954;28;20040;-88
2021/08/28 08:00:02;;;;;;;7.95;3.67;;;;;;;10.68;77.05;90819.88;5016495;28;20021;-88
2021/08/28 08:02:36;;;;;;;10.27;4.03;;;;;;;10.72;77.02;90818.88;5016253;28;20022;-90
2021/08/28 08:05:10;;;;;;;8.45;4.68;;;;;;;10.75;76.34;90815.63;5016350;28;20033;-89
2021/08/28 08:07:51;;;;;;;11.20;4.38;;;;;;;10.73;78.99;90817.03;5016423;28;20393;-90
2021/08/28 08:10:24;;;;;;;11.30;5.25;;;;;;;10.62;77.97;90815.97;5017102;28;20017;-89
2021/08/28 08:13:01;;;;;;;8.73;5.10;;;;;;;10.53;80.26;90826.53;5015861;28;20068;-89
2021/08/28 08:15:37;;;;;;;9.48;5.03;;;;;;;10.50;79.65;90817.53;5033495;28;20049;-89
2021/08/28 08:18:14;;;;;;;10.80;5.45;;;;;;;10.48;81.69;90827.50;5016789;28;20022;-89
2021/08/28 08:20:51;;;;;;;8.35;3.95;;;;;;;10.57;81.51;90826.63;5015825;28;20105;-89
2021/08/28 08:23:20;;;;;;;7.93;4.30;;;;;;;10.63;82.15;90822.69;5019239;28;20021;-89
2021/08/28 08:25:57;;;;;;;7.60;4.10;;;;;;;10.74;82.28;90824.53;5016092;28;20132;-88
2021/08/28 08:28:35;;;;;;;9.65;4.63;;;;;;;10.99;78.96;90827.81;4999429;28;20025;-89
2021/08/28 08:31:13;;;;;;;9.27;4.63;;;;;;;11.11;78.71;90834.06;4999356;28;20029;-87
2021/08/28 08:33:51;;;;;;;9.20;3.88;;;;;;;11.17;79.18;90830.13;4983619;28;20029;-88
2021/08/28 08:36:26;;;;;;;8.38;4.18;;;;;;;11.34;77.16;90827.22;5017051;28;20028;-89
2021/08/28 08:39:01;;;;;;;;;;;;;;;11.15;80.35;90830.44;5020154;28;20105;-90
2021/08/28 08:41:38;;;;;;;6.85;3.95;;;;;;;11.23;79.68;90823.56;5051083;28;19909;-88
2021/08/28 08:44:16;;;;;;;8.82;3.60;;;;;;;11.03;79.74;90825.31;5007289;28;20100;-88
2021/08/28 08:46:53;;;;;;;6.28;3.38;;;;;;;10.88;81.13;90826.00;5000050;28;20021;-88
2021/08/28 08:49:29;;;;;;;5.82;3.60;;;;;;;10.89;81.81;90824.91;4999546;28;20021;-87
2021/08/28 08:52:04;;;;;;;6.72;3.80;;;;;;;10.72;80.43;90841.56;4999362;28;20052;-87
2021/08/28 08:54:43;;;;;;;7.22;4.63;;;;;;;10.87;79.19;90833.06;5002391;28;20029;-90
2021/08/28 08:57:22;;;;;;;9.13;4.53;;;;;;;10.91;78.69;90828.69;4998010;28;20032;-91
2021/08/28 08:59:59;;;;;;;10.25;4.93;;;;;;;11.17;80.16;90836.09;5000029;28;20021;-90
2021/08/28 09:02:31;;;;;;;7.68;4.53;;;;;;;11.20;77.01;90834.66;4983273;28;20099;-89
2021/08/28 09:05:10;;;;;;;8.88;4.50;;;;;;;11.14;78.31;90846.44;4983758;28;20029;-90
2021/08/28 09:07:47;;;;;;;8.43;5.10;;;;;;;11.20;78.51;90839.88;4998709;28;20059;-87
2021/08/28 09:10:24;;;;;;;10.35;5.40;;;;;;;11.33;78.57;90838.00;5015737;28;20017;-87
2021/08/28 09:13:00;;;;;;;9.23;5.45;;;;;;;11.26;76.88;90833.34;4999678;28;20048;-87
2021/08/28 09:15:40;;;;;;;9.35;5.00;;;;;;;11.40;77.13;90833.69;4982704;28;20053;-87
2021/08/28 09:18:21;;;;;;;10.10;5.38;;;;;;;11.18;76.66;90836.88;4982245;28;20037;-85
2021/08/28 09:20:57;;;;;;;9.82;5.07;;;;;;;11.09;75.57;90834.38;5000169;28;20032;-86
2021/08/28 09:23:39;;;;;;;13.57;5.75;;;;;;;10.94;77.93;90838.47;4991386;28;20476;-89
2021/08/28 09:26:28;;;;;;;10.57;5.80;;;;;;;11.00;76.87;90846.81;5033972;28;20033;-89
2021/08/28 09:29:06;;;;;;;13.02;6.28;;;;;;;11.01;76.76;90832.69;5020231;28;20040;-90
2021/08/28 09:31:53;;;;;;;10.65;6.05;;;;;;;11.29;77.71;90832.69;5018249;28;20032;-89
2021/08/28 09:34:28;;;;;;;12.23;5.18;;;;;;;11.73;78.70;90840.47;5030211;28;20029;-89
2021/08/28 09:37:11;;;;;;;9.25;5.13;;;;;;;12.07;75.82;90838.31;5013792;28;20064;-90
2021/08/28 09:39:51;;;;;;;8.52;4.68;;;;;;;12.03;74.45;90834.88;5031473;28;20378;-89
2021/08/28 09:42:34;;;;;;;10.23;4.93;;;;;;;12.17;73.17;90837.81;5014699;28;20029;-89
2021/08/28 09:45:15;;;;;;;10.02;5.72;;;;;;;12.33;72.55;90835.94;5014609;28;20033;-91
2021/08/28 09:47:53;;;;;;;11.15;5.63;;;;;;;12.04;72.44;90839.00;5014642;28;20053;-89
2021/08/28 09:50:36;;;;;;;8.80;5.60;;;;;;;11.93;71.00;90842.13;5014386;28;20120;-89
2021/08/28 09:53:13;;;;;;;11.80;5.80;;;;;;;11.78;72.17;90836.88;5014934;28;20040;-89
2021/08/28 09:55:46;;;;;;;10.25;5.38;;;;;;;11.72;74.32;90847.56;4998712;28;20095;-88
2021/08/28 09:58:15;;;;;;;10.13;4.70;;;;;;;11.82;73.95;90835.84;5011994;28;20115;-89
2021/08/28 10:00:45;;;;;;;11.05;5.00;;;;;;;11.95;73.74;90844.41;5000798;28;20397;-89
2021/08/28 10:03:21;;;;;;;9.85;4.93;;;;;;;11.80;72.87;90840.66;5017806;28;20433;-89
2021/08/28 10:05:57;;;;;;;10.60;5.88;;;;;;;11.94;74.46;90838.44;5018901;28;20059;-89
2021/08/28 10:08:32;;;;;;;9.27;6.18;;;;;;;11.67;73.02;90842.59;5018628;28;20033;-89
2021/08/28 10:11:05;;;;;;;10.55;6.03;;;;;;;11.49;72.85;90852.59;5035908;23;20074;-87
2021/08/28 10:13:38;;;;;;;8.57;5.30;;;;;;;11.83;73.88;90842.59;5039707;28;20025;-87
2021/08/28 10:16:10;;;;;;;9.68;5.63;;;;;;;12.04;73.13;90847.59;5039441;28;20032;-87
2021/08/28 10:18:45;;;;;;;10.90;6.00;;;;;;;11.80;71.62;90845.09;5038927;28;20028;-87
2021/08/28 10:21:25;;;;;;;10.63;6.18;;;;;;;11.33;73.02;90838.00;5040080;28;20028;-85
2021/08/28 10:24:06;;;;;;;9.60;5.65;;;;;;;11.45;73.85;90841.31;5026083;28;20431;-87
2021/08/28 10:26:43;;;;;;;13.05;6.10;;;;;;;11.55;75.84;90854.94;5043250;28;20304;-83
2021/08/28 10:29:13;;;;;;;12.60;6.35;;;;;;;11.75;74.99;90847.97;5034394;28;20029;-88
2021/08/28 10:31:47;;;;;;;9.40;5.40;;;;;;;11.59;75.48;90840.91;5028774;28;20055;-89
2021/08/28 10:34:14;;;;;;;10.52;5.63;;;;;;;11.76;73.42;90834.59;5040213;28;20016;-86
2021/08/28 10:36:51;;;;;;;10.38;4.90;;;;;;;11.86;73.88;90835.97;5038906;28;20039;-87
2021/08/28 10:39:30;;;;;;;8.75;5.00;;;;;;;12.19;71.78;90835.59;5028714;28;20028;-88
2021/08/28 10:42:08;;;;;;;12.00;5.60;;;;;;;12.27;71.71;90833.94;5023606;28;20021;-86
2021/08/28 10:44:47;;;;;;;7.35;4.55;;;;;;;12.24;70.77;90837.22;5024597;28;20025;-87
2021/08/28 10:47:23;;;;;;;8.25;4.85;;;;;;;12.11;70.98;90839.91;5040245;28;20083;-86
2021/08/28 10:50:01;;;;;;;9.15;5.38;;;;;;;12.14;71.21;90843.72;5022566;28;20439;-85
2021/08/28 10:52:35;;;;;;;7.85;4.90;;;;;;;12.13;71.75;90844.81;5023519;28;20070;-87
2021/08/28 10:55:14;;;;;;;9.18;5.22;;;;;;;11.90;70.73;90849.88;5025377;28;20047;-86
2021/08/28 10:57:57;;;;;;;10.30;5.13;;;;;;;11.66;72.36;90850.75;5028024;28;20033;-85
2021/08/28 11:00:39;;;;;;;12.65;5.75;;;;;;;11.40;73.03;90851.97;5043012;28;20031;-86
2021/08/28 11:03:39;;;;;;;10.65;5.28;;;;;;;11.32;74.83;90855.50;5046686;28;20029;-86
2021/08/28 11:06:28;;;;;;;9.55;5.05;;;;;;;11.51;73.78;90849.63;5062434;28;20024;-87
2021/08/28 11:09:00;;;;;;;11.70;5.88;;;;;;;11.57;75.40;90847.53;5030559;28;20089;-87
2021/08/28 11:11:38;;;;;;;9.20;5.95;;;;;;;11.78;75.02;90848.06;5028518;28;20480;-86
2021/08/28 11:14:15;;;;;;;8.35;5.55;;;;;;;12.09;73.03;90841.38;5043318;28;20029;-87
2021/08/28 11:16:57;;;;;;;10.77;5.70;;;;;;;12.38;74.87;90840.91;5043005;28;20058;-87
2021/08/28 11:19:31;;;;;;;15.73;7.38;;;;;;;12.50;76.16;90839.28;5043425;28;20499;-88
2021/08/28 11:22:05;;;;;;;13.48;7.07;;;;;;;12.30;74.88;90841.84;5075734;28;20024;-88
2021/08/28 11:24:37;;;;;;;9.45;4.57;;;;;;;11.85;71.74;90834.47;5026179;28;20146;-88
2021/08/28 11:27:14;;;;;;;8.05;4.22;;;;;;;11.81;73.20;90857.09;5041905;28;20464;-88
2021/08/28 11:29:55;;;;;;;9.35;4.72;;;;;;;11.71;73.23;90856.47;5044051;28;20021;-88
2021/08/28 11:32:31;;;;;;;8.88;4.70;;;;;;;11.21;75.89;90849.25;5041892;28;20028;-87
2021/08/28 11:35:08;;;;;;;9.13;4.68;;;;;;;11.05;75.85;90858.84;5026131;28;20028;-87
2021/08/28 11:37:45;;;;;;;7.80;4.75;;;;;;;11.21;78.14;90849.25;5042196;28;20484;-86
2021/08/28 11:40:32;;;;;;;10.48;4.20;;;;;;;11.46;76.83;90852.50;5026116;28;20024;-86
2021/08/28 11:43:08;;;;;;;7.32;4.10;;;;;;;11.54;78.98;90851.56;5058362;28;20029;-88
2021/08/28 11:45:44;;;;;;;7.07;4.20;;;;;;;11.73;77.09;90856.13;5042676;28;20510;-88
2021/08/28 11:48:26;;;;;;;8.02;4.53;;;;;;;11.55;76.00;90850.47;5042661;28;20550;-88
2021/08/28 11:51:00;;;;;;;9.10;4.40;;;;;;;11.61;77.66;90846.53;5022402;28;20025;-86
2021/08/28 11:53:33;;;;;;;9.63;4.38;;;;;;;11.79;79.45;90854.03;5038120;28;20044;-88
2021/08/28 11:56:08;;;;;;;8.98;4.25;;;;;;;12.08;76.27;90851.03;5021288;28;20025;-87
2021/08/28 11:59:08;;;;;;;8.45;4.75;;;;;;;12.00;75.94;90851.22;5054820;28;20055;-86
2021/08/28 12:01:42;;;;;;;9.50;5.03;;;;;;;12.17;76.20;90843.78;5040488;28;20502;-89
2021/08/28 12:04:17;;;;;;;9.75;5.20;;;;;;;12.01;80.88;90852.72;5057543;28;20138;-87
2021/08/28 12:07:00;;;;;;;7.15;4.90;;;;;;;11.84;80.51;90846.75;5056796;28;20532;-87
2021/08/28 12:09:38;;;;;;;11.73;6.05;;;;;;;11.64;76.74;90853.69;5024189;28;20033;-88
2021/08/28 12:12:14;;;;;;;11.25;6.15;;;;;;;11.69;76.47;90857.91;5025890;28;20025;-88
2021/08/28 12:14:56;;;;;;;10.50;6.10;;;;;;;11.50;76.74;90858.56;5042240;28;20054;-88
2021/08/28 12:17:30;;;;;;;9.45;5.82;;;;;;;11.38;79.10;90867.22;5022725;28;20021;-88
2021/08/28 12:20:05;;;;;;;;;;;;;;;11.34;77.17;90861.16;5038136;28;20110;-87
2021/08/28 12:22:32;;;;;;;12.05;5.90;;;;;;;11.36;78.31;90861.56;5037670;28;19962;-88